Time;durP1;ratioP1;P1;durP2;ratioP2;P2;SDS_P1;SDS_P2;PMS_P1;PMS_P2;Temp;Humidity;BMP_temperature;BMP_pressure;BME280_temperature;BME280_humidity;BME280_pressure;Samples;Min_cycle;Max_cycle;Signal;HPM_P1;HPM_P2
2021/07/07 00:00:12;0.00;0.00;0.62;0.00;0.00;0.62;3.30;1.43;;;25.60;36.90;;;;;;2282633;60;20382;-67
2021/07/07 00:02:38;0.00;0.00;0.62;0.00;0.00;0.62;3.30;1.43;;;25.60;36.90;;;;;;2282127;60;20371;-65
2021/07/07 00:05:07;0.00;0.00;0.62;0.00;0.00;0.62;2.57;1.23;;;25.60;36.90;;;;;;2282159;60;20347;-66
2021/07/07 00:07:36;0.00;0.00;0.62;0.00;0.00;0.62;2.33;1.50;;;25.60;36.90;;;;;;2282662;60;20380;-64
2021/07/07 00:10:07;0.00;0.00;0.62;0.00;0.00;0.62;7.33;1.57;;;25.60;37.00;;;;;;2282435;60;20370;-65
2021/07/07 00:12:34;0.00;0.00;0.62;0.00;0.00;0.62;2.07;1.37;;;25.60;36.90;;;;;;2281926;60;20370;-67
2021/07/07 00:15:02;0.00;0.00;0.62;0.00;0.00;0.62;2.40;1.30;;;25.70;37.00;;;;;;2282682;60;20346;-66
2021/07/07 00:17:29;0.00;0.00;0.62;0.00;0.00;0.62;3.00;1.70;;;25.60;37.00;;;;;;2282589;60;20438;-65
2021/07/07 00:19:56;0.00;0.00;0.62;0.00;0.00;0.62;2.43;1.40;;;25.60;36.90;;;;;;2282022;60;20381;-66
2021/07/07 00:22:22;0.00;0.00;0.62;0.00;0.00;0.62;2.20;1.37;;;25.60;36.90;;;;;;2281966;60;20612;-65
2021/07/07 00:24:50;0.00;0.00;0.62;0.00;0.00;0.62;4.83;1.47;;;25.60;36.90;;;;;;2282447;60;20347;-65
2021/07/07 00:27:17;0.00;0.00;0.62;0.00;0.00;0.62;2.87;1.70;;;25.60;36.90;;;;;;2282045;60;20358;-65
2021/07/07 00:29:44;0.00;0.00;0.62;0.00;0.00;0.62;3.30;1.60;;;25.60;36.90;;;;;;2282523;60;20342;-65
2021/07/07 00:32:11;0.00;0.00;0.62;0.00;0.00;0.62;3.53;1.40;;;25.60;36.90;;;;;;2282293;60;20346;-65
2021/07/07 00:34:37;0.00;0.00;0.62;0.00;0.00;0.62;2.50;1.63;;;25.60;36.90;;;;;;2282086;60;20375;-65
2021/07/07 00:37:04;0.00;0.00;0.62;0.00;0.00;0.62;2.37;1.43;;;25.60;37.00;;;;;;2282559;60;20687;-66
2021/07/07 00:39:30;0.00;0.00;0.62;0.00;0.00;0.62;3.83;1.37;;;25.60;37.10;;;;;;2282360;60;20421;-65
2021/07/07 00:41:58;0.00;0.00;0.62;0.00;0.00;0.62;3.00;1.53;;;25.60;37.20;;;;;;2281998;60;20361;-65
2021/07/07 00:44:25;0.00;0.00;0.62;0.00;0.00;0.62;6.37;2.33;;;25.50;37.20;;;;;;2282486;60;20366;-65
2021/07/07 00:46:52;0.00;0.00;0.62;0.00;0.00;0.62;5.70;2.40;;;25.50;37.30;;;;;;2281622;60;20748;-65
2021/07/07 00:49:18;0.00;0.00;0.62;0.00;0.00;0.62;3.10;1.50;;;25.50;37.40;;;;;;2278097;61;20347;-65
2021/07/07 00:51:45;0.00;0.00;0.62;0.00;0.00;0.62;2.73;1.90;;;25.50;37.50;;;;;;2278415;61;20558;-66
2021/07/07 00:54:14;0.00;0.00;0.62;0.00;0.00;0.62;3.17;1.83;;;25.50;37.60;;;;;;2278294;61;20367;-66
2021/07/07 00:56:42;0.00;0.00;0.62;0.00;0.00;0.62;4.80;1.60;;;25.50;37.70;;;;;;2278131;61;20352;-66
2021/07/07 00:59:10;0.00;0.00;0.62;0.00;0.00;0.62;2.73;1.63;;;25.50;37.80;;;;;;2278212;61;20385;-66
2021/07/07 01:01:39;0.00;0.00;0.62;0.00;0.00;0.62;2.60;1.70;;;25.50;37.80;;;;;;2278113;61;20359;-66
2021/07/07 01:04:05;0.00;0.00;0.62;0.00;0.00;0.62;3.70;1.57;;;25.50;37.80;;;;;;2277580;61;20382;-66
2021/07/07 01:06:32;0.00;0.00;0.62;0.00;0.00;0.62;3.97;1.70;;;25.50;37.80;;;;;;2278081;61;20373;-66
2021/07/07 01:08:58;0.00;0.00;0.62;0.00;0.00;0.62;2.10;1.33;;;25.50;37.90;;;;;;2274476;61;20715;-65
2021/07/07 01:11:25;0.00;0.00;0.62;0.00;0.00;0.62;2.43;2.23;;;25.50;37.90;;;;;;2277958;61;20377;-66
2021/07/07 01:13:51;0.00;0.00;0.62;0.00;0.00;0.62;3.40;1.40;;;25.40;37.90;;;;;;2278104;61;20379;-66
2021/07/07 01:16:19;0.00;0.00;0.62;0.00;0.00;0.62;3.90;1.80;;;25.40;37.90;;;;;;2277821;61;20447;-66
2021/07/07 01:18:46;0.00;0.00;0.62;0.00;0.00;0.62;4.77;1.67;;;25.40;38.00;;;;;;2277991;61;20370;-65
2021/07/07 01:21:13;0.00;0.00;0.62;0.00;0.00;0.62;4.50;1.93;;;25.40;38.10;;;;;;2277825;61;20726;-66
2021/07/07 01:23:41;0.00;0.00;0.62;0.00;0.00;0.62;4.80;1.67;;;25.40;38.10;;;;;;2278290;61;20371;-66
2021/07/07 01:26:07;0.00;0.00;0.62;0.00;0.00;0.62;2.70;1.40;;;25.40;38.10;;;;;;2278109;61;20360;-66
2021/07/07 01:28:34;0.00;0.00;0.62;0.00;0.00;0.62;3.20;1.70;;;25.40;38.20;;;;;;2277953;61;20367;-66
2021/07/07 01:31:03;0.00;0.00;0.62;0.00;0.00;0.62;2.27;1.33;;;25.30;38.20;;;;;;2278128;61;20370;-66
2021/07/07 01:33:30;0.00;0.00;0.62;0.00;0.00;0.62;3.23;1.87;;;25.30;38.30;;;;;;2278003;61;20460;-65
2021/07/07 01:35:56;0.00;0.00;0.62;0.00;0.00;0.62;4.23;1.70;;;25.30;38.30;;;;;;2277936;61;20492;-66
2021/07/07 01:38:23;0.00;0.00;0.62;0.00;0.00;0.62;2.50;1.40;;;25.30;38.30;;;;;;2278323;61;20375;-66
2021/07/07 01:40:54;0.00;0.00;0.62;0.00;0.00;0.62;2.73;1.63;;;25.30;38.30;;;;;;2277893;61;20383;-66
2021/07/07 01:43:21;0.00;0.00;0.62;0.00;0.00;0.62;4.77;1.50;;;25.30;38.40;;;;;;2277830;61;20450;-66
2021/07/07 01:45:47;0.00;0.00;0.62;0.00;0.00;0.62;2.60;1.60;;;25.20;38.40;;;;;;2278196;61;20355;-66
2021/07/07 01:48:14;0.00;0.00;0.62;0.00;0.00;0.62;2.17;1.20;;;25.20;38.40;;;;;;2278008;61;20348;-65
2021/07/07 01:50:41;0.00;0.00;0.62;0.00;0.00;0.62;2.30;1.30;;;25.20;38.50;;;;;;2277910;61;20435;-66
2021/07/07 01:53:07;0.00;0.00;0.62;0.00;0.00;0.62;2.50;1.50;;;25.20;38.50;;;;;;2278086;61;20391;-66
2021/07/07 01:55:34;0.00;0.00;0.62;0.00;0.00;0.62;3.73;1.50;;;25.30;38.60;;;;;;2277997;61;20362;-65
2021/07/07 01:58:02;0.00;0.00;0.62;0.00;0.00;0.62;2.87;1.53;;;25.30;38.60;;;;;;2277847;60;20391;-65
2021/07/07 02:00:32;0.00;0.00;0.62;0.00;0.00;0.62;2.77;1.40;;;25.30;38.60;;;;;;2278153;61;20629;-66
2021/07/07 02:03:00;0.00;0.00;0.62;0.00;0.00;0.62;1.93;1.40;;;25.30;38.60;;;;;;2277800;61;20378;-66
2021/07/07 02:05:29;0.00;0.00;0.62;0.00;0.00;0.62;3.30;1.73;;;25.30;38.60;;;;;;2277909;61;20356;-65
2021/07/07 02:07:57;0.00;0.00;0.62;0.00;0.00;0.62;2.40;1.50;;;25.30;38.60;;;;;;2278164;61;20356;-66
2021/07/07 02:10:23;0.00;0.00;0.62;0.00;0.00;0.62;2.23;1.63;;;25.30;38.60;;;;;;2277778;61;20446;-66
2021/07/07 02:12:51;0.00;0.00;0.62;0.00;0.00;0.62;2.13;1.40;;;25.30;38.60;;;;;;2277735;61;20368;-65
2021/07/07 02:15:22;0.00;0.00;0.62;0.00;0.00;0.62;2.60;1.20;;;25.30;38.60;;;;;;2278156;61;20358;-66
2021/07/07 02:17:52;0.00;0.00;0.62;0.00;0.00;0.62;3.23;1.93;;;25.40;38.60;;;;;;2277837;61;20370;-66
2021/07/07 02:20:20;0.00;0.00;0.62;0.00;0.00;0.62;2.10;1.40;;;25.30;38.60;;;;;;2277919;61;20699;-66
2021/07/07 02:22:48;0.00;0.00;0.62;0.00;0.00;0.62;2.27;1.50;;;25.40;38.80;;;;;;2278102;61;20371;-66
2021/07/07 02:25:18;0.00;0.00;0.62;0.00;0.00;0.62;2.13;1.50;;;25.40;38.80;;;;;;2277710;61;20427;-67
2021/07/07 02:27:45;0.00;0.00;0.62;0.00;0.00;0.62;3.77;1.47;;;25.40;38.80;;;;;;2277877;61;20400;-66
2021/07/07 02:30:15;0.00;0.00;0.62;0.00;0.00;0.62;4.70;2.03;;;25.40;38.80;;;;;;2278124;61;20362;-66
2021/07/07 02:32:45;0.00;0.00;0.62;0.00;0.00;0.62;2.10;1.43;;;25.40;38.80;;;;;;2277602;61;20383;-65
2021/07/07 02:35:15;0.00;0.00;0.62;0.00;0.00;0.62;2.87;1.67;;;25.40;38.80;;;;;;2277921;61;20360;-65
2021/07/07 02:37:43;0.00;0.00;0.62;0.00;0.00;0.62;3.37;1.50;;;25.40;38.80;;;;;;2278135;61;20378;-65
2021/07/07 02:40:12;0.00;0.00;0.62;0.00;0.00;0.62;2.70;1.30;;;25.40;38.90;;;;;;2277576;61;20384;-65
2021/07/07 02:42:39;0.00;0.00;0.62;0.00;0.00;0.62;2.90;1.60;;;25.40;38.90;;;;;;2277787;61;20497;-65
2021/07/07 02:45:08;0.00;0.00;0.62;0.00;0.00;0.62;2.90;1.63;;;25.40;38.90;;;;;;2277579;61;20359;-65
2021/07/07 02:47:35;0.00;0.00;0.62;0.00;0.00;0.62;3.07;1.73;;;25.40;38.90;;;;;;2277663;61;20347;-65
2021/07/07 02:50:05;0.00;0.00;0.62;0.00;0.00;0.62;2.27;1.53;;;25.40;38.90;;;;;;2277866;61;20352;-65
2021/07/07 02:52:32;0.00;0.00;0.62;0.00;0.00;0.62;2.70;1.23;;;25.40;38.90;;;;;;2277834;61;20429;-66
2021/07/07 02:54:58;0.00;0.00;0.62;0.00;0.00;0.62;4.50;1.60;;;25.50;39.00;;;;;;2277737;61;20583;-66
2021/07/07 02:57:25;0.00;0.00;0.62;0.00;0.00;0.62;2.17;1.30;;;25.50;39.00;;;;;;2277876;61;20348;-66
2021/07/07 02:59:51;0.00;0.00;0.62;0.00;0.00;0.62;2.70;1.60;;;25.50;39.10;;;;;;2277889;61;20371;-65
2021/07/07 03:02:18;0.00;0.00;0.62;0.00;0.00;0.62;2.77;2.00;;;25.40;39.10;;;;;;2277643;61;20411;-66
2021/07/07 03:04:44;0.00;0.00;0.62;0.00;0.00;0.62;4.50;2.10;;;25.40;39.00;;;;;;2277844;61;20363;-65
2021/07/07 03:07:12;0.00;0.00;0.62;0.00;0.00;0.62;5.70;1.93;;;25.40;39.10;;;;;;2277841;61;20731;-66
2021/07/07 03:09:38;0.00;0.00;0.62;0.00;0.00;0.62;3.00;1.90;;;25.40;39.10;;;;;;2277705;60;20737;-66
2021/07/07 03:12:05;0.00;0.00;0.62;0.00;0.00;0.62;6.57;2.13;;;25.40;39.10;;;;;;2278513;61;20555;-65
2021/07/07 03:14:32;0.00;0.00;0.62;0.00;0.00;0.62;5.07;1.90;;;25.40;39.20;;;;;;2278685;61;20611;-65
2021/07/07 03:16:59;0.00;0.00;0.62;0.00;0.00;0.62;2.23;1.40;;;25.30;39.10;;;;;;2278472;61;20352;-65
2021/07/07 03:19:25;0.00;0.00;0.62;0.00;0.00;0.62;3.73;1.60;;;25.30;39.20;;;;;;2278413;61;20358;-66
2021/07/07 03:21:52;0.00;0.00;0.62;0.00;0.00;0.62;2.60;1.70;;;25.30;39.20;;;;;;2278491;61;20395;-66
2021/07/07 03:24:20;0.00;0.00;0.62;0.00;0.00;0.62;1.97;1.47;;;25.20;39.90;;;;;;2278469;61;20355;-65
2021/07/07 03:26:46;0.00;0.00;0.62;0.00;0.00;0.62;2.80;1.67;;;25.20;39.20;;;;;;2278467;61;20359;-65
2021/07/07 03:29:13;0.00;0.00;0.62;0.00;0.00;0.62;5.10;1.73;;;25.20;39.30;;;;;;2278517;61;20352;-66
2021/07/07 03:31:39;0.00;0.00;0.62;0.00;0.00;0.62;5.70;1.40;;;25.20;39.40;;;;;;2278346;61;20676;-66
2021/07/07 03:34:06;0.00;0.00;0.62;0.00;0.00;0.62;3.77;1.80;;;25.20;39.50;;;;;;2278487;61;20506;-65
2021/07/07 03:36:32;0.00;0.00;0.62;0.00;0.00;0.62;3.67;1.63;;;25.20;39.50;;;;;;2278614;61;20347;-65
2021/07/07 03:38:59;0.00;0.00;0.62;0.00;0.00;0.62;4.03;1.40;;;25.20;39.50;;;;;;2278444;61;20577;-65
2021/07/07 03:41:26;0.00;0.00;0.62;0.00;0.00;0.62;2.47;1.30;;;25.20;39.50;;;;;;2278061;61;20639;-65
2021/07/07 03:43:53;0.00;0.00;0.62;0.00;0.00;0.62;5.30;2.20;;;25.20;39.50;;;;;;2278591;61;20454;-66
2021/07/07 03:46:19;0.00;0.00;0.62;0.00;0.00;0.62;2.50;1.57;;;25.20;39.60;;;;;;2278405;61;20385;-66
2021/07/07 03:48:46;0.00;0.00;0.62;0.00;0.00;0.62;2.93;2.30;;;25.20;39.60;;;;;;2281967;60;20619;-66
2021/07/07 03:51:12;0.00;0.00;0.62;0.00;0.00;0.62;3.70;2.10;;;25.20;39.70;;;;;;2282502;60;20354;-66
2021/07/07 03:53:39;0.00;0.00;0.62;0.00;0.00;0.62;4.13;2.00;;;25.20;40.40;;;;;;2282351;60;20362;-66
2021/07/07 03:56:06;0.00;0.00;0.62;0.00;0.00;0.62;3.57;1.60;;;25.10;39.70;;;;;;2282377;60;20351;-66
2021/07/07 03:58:33;0.00;0.00;0.62;0.00;0.00;0.62;6.53;2.00;;;25.10;40.60;;;;;;2282625;60;20368;-66
2021/07/07 04:01:00;0.00;0.00;0.62;0.00;0.00;0.62;4.83;1.80;;;25.10;39.90;;;;;;2282124;60;20740;-66
2021/07/07 04:03:26;0.00;0.00;0.62;0.00;0.00;0.62;3.50;1.60;;;25.10;39.90;;;;;;2282378;60;20367;-65
2021/07/07 04:05:53;0.00;0.00;0.62;0.00;0.00;0.62;2.40;1.67;;;25.10;39.90;;;;;;2282337;60;20402;-66
2021/07/07 04:08:19;0.00;0.00;0.62;0.00;0.00;0.62;2.60;1.50;;;25.00;39.90;;;;;;2281751;60;20360;-65
2021/07/07 04:10:46;0.00;0.00;0.62;0.00;0.00;0.62;2.67;1.90;;;25.00;39.90;;;;;;2282218;60;20366;-65
2021/07/07 04:13:13;0.00;0.00;0.62;0.00;0.00;0.62;2.80;2.03;;;25.00;39.90;;;;;;2282688;60;20366;-65
2021/07/07 04:15:41;0.00;0.00;0.62;0.00;0.00;0.62;2.30;1.67;;;25.00;39.90;;;;;;2282583;60;20346;-65
2021/07/07 04:18:09;0.00;0.00;0.62;0.00;0.00;0.62;2.47;1.43;;;25.00;39.90;;;;;;2282177;60;20354;-65
2021/07/07 04:20:36;0.00;0.00;0.62;0.00;0.00;0.62;2.53;1.40;;;24.90;39.80;;;;;;2282485;60;20440;-65
2021/07/07 04:23:03;0.00;0.00;0.62;0.00;0.00;0.62;2.73;1.37;;;24.90;39.80;;;;;;2282422;60;20371;-65
2021/07/07 04:25:30;0.00;0.00;0.62;0.00;0.00;0.62;4.33;2.00;;;24.90;39.80;;;;;;2282213;60;20359;-65
2021/07/07 04:27:56;0.00;0.00;0.62;0.00;0.00;0.62;4.43;1.90;;;24.90;39.80;;;;;;2282473;60;20351;-65
2021/07/07 04:30:23;0.00;0.00;0.62;0.00;0.00;0.62;5.50;1.80;;;24.80;39.70;;;;;;2282442;60;20342;-66
2021/07/07 04:32:51;0.00;0.00;0.62;0.00;0.00;0.62;1.80;1.30;;;24.80;39.70;;;;;;2281939;60;20720;-66
2021/07/07 04:35:18;0.00;0.00;0.62;0.00;0.00;0.62;3.80;1.73;;;24.70;39.60;;;;;;2282170;60;20351;-65
2021/07/07 04:37:48;0.00;0.00;0.62;0.00;0.00;0.62;5.23;2.00;;;24.70;39.80;;;;;;2282479;60;20434;-65
2021/07/07 04:40:16;0.00;0.00;0.62;0.00;0.00;0.62;3.00;1.83;;;24.70;39.90;;;;;;2281875;60;20463;-65
2021/07/07 04:42:43;0.00;0.00;0.62;0.00;0.00;0.62;4.87;2.13;;;24.70;39.90;;;;;;2282396;60;20371;-66
2021/07/07 04:45:11;0.00;0.00;0.62;0.00;0.00;0.62;5.47;2.50;;;24.70;39.90;;;;;;2282414;60;20354;-65
2021/07/07 04:47:39;0.00;0.00;0.62;0.00;0.00;0.62;3.30;1.70;;;24.70;39.90;;;;;;2280107;60;20367;-66
2021/07/07 04:50:10;0.00;0.00;0.62;0.00;0.00;0.62;3.73;1.90;;;24.60;39.80;;;;;;2278380;61;20351;-66
2021/07/07 04:52:37;0.00;0.00;0.62;0.00;0.00;0.62;3.67;1.90;;;24.70;40.00;;;;;;2278208;61;20387;-65
2021/07/07 04:55:06;0.00;0.00;0.62;0.00;0.00;0.62;3.80;1.90;;;24.70;40.00;;;;;;2277948;61;20358;-65
2021/07/07 04:57:42;0.00;0.00;0.62;0.00;0.00;0.62;3.10;1.77;;;24.70;40.00;;;;;;2278344;61;20370;-65
2021/07/07 05:00:12;0.00;0.00;0.62;0.00;0.00;0.62;4.37;1.70;;;24.60;39.80;;;;;;2278038;61;20387;-65
2021/07/07 05:02:39;0.00;0.00;0.62;0.00;0.00;0.62;5.43;2.40;;;24.60;39.90;;;;;;2278045;61;20600;-65
2021/07/07 05:05:09;0.00;0.00;0.62;0.00;0.00;0.62;6.13;2.80;;;24.70;39.90;;;;;;2278385;61;20435;-64
2021/07/07 05:07:40;0.00;0.00;0.62;0.00;0.00;0.62;8.93;2.80;;;24.60;39.80;;;;;;2277500;61;20367;-64
2021/07/07 05:10:12;0.00;0.00;0.62;0.00;0.00;0.62;5.80;2.30;;;24.60;39.90;;;;;;2278023;61;20571;-64
2021/07/07 05:12:40;0.00;0.00;0.62;0.00;0.00;0.62;8.83;3.50;;;24.60;39.80;;;;;;2278399;61;20382;-63
2021/07/07 05:15:11;0.00;0.00;0.62;0.00;0.00;0.62;9.80;3.93;;;24.60;40.50;;;;;;2278055;61;20585;-63
2021/07/07 05:17:38;0.00;0.00;0.62;0.00;0.00;0.62;7.57;2.87;;;24.60;39.90;;;;;;2278137;61;20352;-63
2021/07/07 05:20:08;0.00;0.00;0.62;0.00;0.00;0.62;7.70;3.23;;;24.60;39.80;;;;;;2278174;61;20423;-62
2021/07/07 05:22:35;0.00;0.00;0.62;0.00;0.00;0.62;6.33;3.00;;;24.60;39.90;;;;;;2277839;61;20748;-71
2021/07/07 05:25:03;0.00;0.00;0.62;0.00;0.00;0.62;6.97;2.90;;;24.60;39.90;;;;;;2278116;61;20397;-65
2021/07/07 05:27:29;0.00;0.00;0.62;0.00;0.00;0.62;5.13;3.00;;;24.60;39.90;;;;;;2278149;61;20347;-68
2021/07/07 05:29:57;0.00;0.00;0.62;0.00;0.00;0.62;11.53;3.37;;;24.60;40.00;;;;;;2277881;61;20352;-69
2021/07/07 05:32:24;0.00;0.00;0.62;0.00;0.00;0.62;4.90;2.53;;;24.60;40.20;;;;;;2277737;60;20602;-62
2021/07/07 05:34:52;0.00;0.00;0.62;0.00;0.00;0.62;6.00;2.60;;;24.60;40.10;;;;;;2278117;61;20611;-64
2021/07/07 05:37:21;0.00;0.00;0.62;0.00;0.00;0.62;7.47;2.80;;;24.60;40.10;;;;;;2277995;61;20349;-66
2021/07/07 05:39:48;0.00;0.00;0.62;0.00;0.00;0.62;6.50;3.17;;;24.60;40.20;;;;;;2277872;61;20616;-66
2021/07/07 05:42:17;0.00;0.00;0.62;0.00;0.00;0.62;5.07;2.50;;;24.60;40.20;;;;;;2277935;61;20374;-64
2021/07/07 05:44:44;0.00;0.00;0.62;0.00;0.00;0.62;4.53;2.27;;;24.60;40.10;;;;;;2278103;61;20578;-64
2021/07/07 05:47:10;0.00;0.00;0.62;0.00;0.00;0.62;7.77;2.37;;;24.60;40.10;;;;;;2279051;60;20356;-66
2021/07/07 05:49:37;0.00;0.00;0.62;0.00;0.00;0.62;5.20;2.13;;;24.60;40.80;;;;;;2282130;60;20347;-65
2021/07/07 05:52:05;0.00;0.00;0.62;0.00;0.00;0.62;4.77;2.20;;;24.60;40.10;;;;;;2281646;60;20351;-65
2021/07/07 05:54:32;0.00;0.00;0.62;0.00;0.00;0.62;3.60;1.73;;;24.60;40.20;;;;;;2281873;60;20362;-65
2021/07/07 05:57:00;0.00;0.00;0.62;0.00;0.00;0.62;5.13;2.17;;;24.60;40.20;;;;;;2282305;60;20435;-68
2021/07/07 05:59:26;0.00;0.00;0.62;0.00;0.00;0.62;3.67;2.07;;;24.60;40.10;;;;;;2282010;60;20358;-67
2021/07/07 06:01:53;0.00;0.00;0.62;0.00;0.00;0.62;3.87;1.73;;;24.60;40.10;;;;;;2281345;60;20393;-72
2021/07/07 06:04:20;0.00;0.00;0.62;0.00;0.00;0.62;9.33;2.10;;;24.60;40.20;;;;;;2282163;60;20357;-69
2021/07/07 06:06:46;0.00;0.00;0.62;0.00;0.00;0.62;4.83;2.20;;;24.60;40.20;;;;;;2282034;60;20379;-66
2021/07/07 06:09:13;0.00;0.00;0.62;0.00;0.00;0.62;3.83;2.07;;;24.60;40.20;;;;;;2281969;60;20429;-68
2021/07/07 06:11:42;0.00;0.00;0.62;0.00;0.00;0.62;4.70;1.60;;;24.60;40.20;;;;;;2282092;60;20359;-70
2021/07/07 06:14:09;0.00;0.00;0.62;0.00;0.00;0.62;4.83;1.90;;;24.60;40.20;;;;;;2281980;60;20719;-68
2021/07/07 06:16:36;0.00;0.00;0.62;0.00;0.00;0.62;4.87;1.70;;;24.70;40.30;;;;;;2281884;60;20385;-70
2021/07/07 06:19:02;0.00;0.00;0.62;0.00;0.00;0.62;7.83;1.87;;;24.60;40.20;;;;;;2282198;60;20362;-70
2021/07/07 06:21:30;0.00;0.00;0.62;0.00;0.00;0.62;2.63;1.63;;;24.70;40.40;;;;;;2281920;60;20382;-68
2021/07/07 06:23:57;0.00;0.00;0.62;0.00;0.00;0.62;3.23;1.90;;;24.60;40.30;;;;;;2281865;60;20737;-68
2021/07/07 06:26:28;0.00;0.00;0.62;0.00;0.00;0.62;3.53;1.73;;;24.60;40.30;;;;;;2282144;60;20351;-69
2021/07/07 06:28:56;0.00;0.00;0.62;0.00;0.00;0.62;2.73;1.57;;;24.70;40.40;;;;;;2282244;60;20347;-69
2021/07/07 06:31:23;0.00;0.00;0.62;0.00;0.00;0.62;3.43;1.43;;;24.70;40.40;;;;;;2281678;60;20350;-70
2021/07/07 06:33:50;0.00;0.00;0.62;0.00;0.00;0.62;3.50;1.47;;;24.70;40.50;;;;;;2281670;60;20370;-69
2021/07/07 06:36:16;0.00;0.00;0.62;0.00;0.00;0.62;2.90;1.47;;;24.80;41.30;;;;;;2282174;60;20434;-68
2021/07/07 06:38:43;0.00;0.00;0.62;0.00;0.00;0.62;3.07;1.40;;;24.90;40.60;;;;;;2281357;60;20443;-71
2021/07/07 06:41:09;0.00;0.00;0.62;0.00;0.00;0.62;3.23;1.40;;;24.90;40.60;;;;;;2281916;60;20461;-71
2021/07/07 06:43:36;0.00;0.00;0.62;0.00;0.00;0.62;3.73;1.53;;;24.90;40.50;;;;;;2281993;60;20635;-70
2021/07/07 06:46:04;0.00;0.00;0.62;0.00;0.00;0.62;2.00;1.47;;;25.00;40.60;;;;;;2281474;60;20350;-68
2021/07/07 06:48:30;0.00;0.00;0.62;0.00;0.00;0.62;2.20;1.20;;;25.10;40.60;;;;;;2278590;60;20364;-67
2021/07/07 06:50:57;0.00;0.00;0.62;0.00;0.00;0.62;2.70;1.40;;;25.10;40.60;;;;;;2278118;61;20351;-66
2021/07/07 06:53:25;0.00;0.00;0.62;0.00;0.00;0.62;1.67;1.33;;;25.20;40.50;;;;;;2277358;61;20377;-69
2021/07/07 06:55:52;0.00;0.00;0.62;0.00;0.00;0.62;2.23;1.57;;;25.20;40.40;;;;;;2277983;61;20355;-67
2021/07/07 06:58:19;0.00;0.00;0.62;0.00;0.00;0.62;2.60;1.53;;;25.30;40.40;;;;;;2277992;61;20665;-67
2021/07/07 07:00:45;0.00;0.00;0.62;0.00;0.00;0.62;2.30;1.37;;;25.30;40.30;;;;;;2277452;61;20383;-67
2021/07/07 07:03:13;0.00;0.00;0.62;0.00;0.00;0.62;2.63;1.60;;;25.40;40.20;;;;;;2277855;61;20622;-68
2021/07/07 07:05:40;0.00;0.00;0.62;0.00;0.00;0.62;1.30;1.00;;;25.40;40.20;;;;;;2277550;61;20772;-68
2021/07/07 07:08:07;0.00;0.00;0.62;0.00;0.00;0.62;1.83;1.33;;;25.50;40.20;;;;;;2277425;61;20351;-67
2021/07/07 07:10:33;0.00;0.00;0.62;0.00;0.00;0.62;1.70;1.17;;;25.50;40.20;;;;;;2277813;61;20366;-73
2021/07/07 07:13:00;0.00;0.00;0.62;0.00;0.00;0.62;4.50;1.77;;;25.50;40.20;;;;;;2277789;61;20731;-66
2021/07/07 07:15:26;0.00;0.00;0.62;0.00;0.00;0.62;5.37;2.53;;;25.60;40.30;;;;;;2277547;61;20352;-68
2021/07/07 07:17:53;0.00;0.00;0.62;0.00;0.00;0.62;9.03;1.70;;;25.70;40.30;;;;;;2277889;61;20393;-70
2021/07/07 07:20:25;0.00;0.00;0.62;0.00;0.00;0.62;5.10;2.63;;;25.60;39.90;;;;;;2277831;61;20865;-68
2021/07/07 07:22:51;0.00;0.00;0.62;0.00;0.00;0.62;5.03;2.20;;;25.70;39.80;;;;;;2277328;61;20383;-69
2021/07/07 07:25:18;0.00;0.00;0.62;0.00;0.00;0.62;7.23;2.30;;;25.70;39.80;;;;;;2277798;61;20462;-65
2021/07/07 07:27:45;0.00;0.00;0.62;0.00;0.00;0.62;5.20;1.97;;;25.60;39.60;;;;;;2277858;61;20350;-67
2021/07/07 07:30:13;0.00;0.00;0.62;0.00;0.00;0.62;5.80;2.17;;;25.70;39.70;;;;;;2277501;61;20347;-71
2021/07/07 07:32:40;0.00;0.00;0.62;0.00;0.00;0.62;4.17;1.60;;;25.70;40.50;;;;;;2277227;61;20493;-71
2021/07/07 07:35:07;0.00;0.00;0.62;0.00;0.00;0.62;2.53;1.63;;;25.70;39.90;;;;;;2277832;61;20692;-69
2021/07/07 07:38:02;0.00;0.00;0.62;0.00;0.00;0.62;4.40;1.80;;;25.70;40.00;;;;;;2277565;61;20376;-71
2021/07/07 07:40:31;0.00;0.00;0.62;0.00;0.00;0.62;4.60;1.50;;;25.70;40.10;;;;;;2277781;61;20372;-68
2021/07/07 07:42:58;0.00;0.00;0.62;0.00;0.00;0.62;2.30;1.47;;;25.70;40.00;;;;;;2277586;61;20458;-62
2021/07/07 07:45:25;0.00;0.00;0.62;0.00;0.00;0.62;3.03;1.77;;;25.70;40.10;;;;;;2277716;61;20347;-68
2021/07/07 07:47:52;0.00;0.00;0.62;0.00;0.00;0.62;3.17;1.60;;;25.80;40.10;;;;;;2280092;60;20381;-68
2021/07/07 07:50:18;0.00;0.00;0.62;0.00;0.00;0.62;3.33;1.63;;;25.80;40.10;;;;;;2281839;60;20351;-67
2021/07/07 07:52:46;0.00;0.00;0.62;0.00;0.00;0.62;2.47;1.43;;;25.80;40.00;;;;;;2281515;60;20370;-70
2021/07/07 07:55:13;0.00;0.00;0.62;0.00;0.00;0.62;3.40;1.60;;;25.90;40.10;;;;;;2281996;60;20358;-69
2021/07/07 07:57:40;0.00;0.00;0.62;0.00;0.00;0.62;2.57;1.43;;;25.90;40.00;;;;;;2282627;60;20351;-68
2021/07/07 08:00:11;0.00;0.00;0.62;0.00;0.00;0.62;1.70;1.40;;;26.00;40.00;;;;;;2282262;60;20465;-67
2021/07/07 08:02:45;0.00;0.00;0.62;0.00;0.00;0.62;2.60;1.50;;;26.00;40.00;;;;;;2282436;60;20702;-67
2021/07/07 08:05:13;0.00;0.00;0.62;0.00;0.00;0.62;1.97;1.40;;;26.10;40.00;;;;;;2282621;60;20434;-63
2021/07/07 08:07:41;0.00;0.00;0.62;0.00;0.00;0.62;3.17;1.40;;;26.10;40.00;;;;;;2282312;60;20683;-67
2021/07/07 08:10:13;0.00;0.00;0.62;0.00;0.00;0.62;4.13;2.03;;;26.10;40.00;;;;;;2282482;60;20358;-65
2021/07/07 08:12:40;0.00;0.00;0.62;0.00;0.00;0.62;4.53;1.93;;;26.20;39.80;;;;;;2282323;60;20612;-69
2021/07/07 08:15:09;0.00;0.00;0.62;0.00;0.00;0.62;3.33;1.80;;;26.20;39.50;;;;;;2282295;60;20381;-64
2021/07/07 08:17:36;0.00;0.00;0.62;0.00;0.00;0.62;2.47;1.77;;;26.20;39.30;;;;;;2282574;60;20353;-72
2021/07/07 08:20:06;0.00;0.00;0.62;0.00;0.00;0.62;1.80;1.30;;;26.20;39.20;;;;;;2282261;60;20419;-70
2021/07/07 08:22:33;0.00;0.00;0.62;0.00;0.00;0.62;5.00;1.80;;;26.20;39.20;;;;;;2282149;60;20453;-70
2021/07/07 08:24:59;0.00;0.00;0.62;0.00;0.00;0.62;3.00;1.47;;;26.20;39.30;;;;;;2282516;60;20433;-69
2021/07/07 08:27:27;0.00;0.00;0.62;0.00;0.00;0.62;2.90;1.60;;;26.20;39.40;;;;;;2282350;60;20347;-70
2021/07/07 08:29:54;0.00;0.00;0.62;0.00;0.00;0.62;2.37;1.60;;;26.30;39.50;;;;;;2282209;60;20438;-67
2021/07/07 08:32:20;0.00;0.00;0.62;0.00;0.00;0.62;2.33;1.70;;;26.30;39.50;;;;;;2282493;60;20398;-68
2021/07/07 08:34:47;0.00;0.00;0.62;0.00;0.00;0.62;3.30;1.60;;;26.30;39.60;;;;;;2282321;60;20487;-71
2021/07/07 08:37:15;0.00;0.00;0.62;0.00;0.00;0.62;2.10;1.60;;;26.30;39.70;;;;;;2282246;60;20346;-65
2021/07/07 08:39:42;0.00;0.00;0.62;0.00;0.00;0.62;1.83;1.60;;;26.40;39.70;;;;;;2282531;60;20615;-71
2021/07/07 08:42:09;0.00;0.00;0.62;0.00;0.00;0.62;6.63;2.03;;;26.40;39.80;;;;;;2282270;60;20357;-70
2021/07/07 08:44:42;0.00;0.00;0.62;0.00;0.00;0.62;2.93;1.97;;;26.40;39.80;;;;;;2282138;60;20355;-70
2021/07/07 08:47:09;0.00;0.00;0.62;0.00;0.00;0.62;3.13;2.23;;;26.50;39.90;;;;;;2281568;60;20399;-69
2021/07/07 08:49:37;0.00;0.00;0.62;0.00;0.00;0.62;7.53;2.10;;;26.50;39.80;;;;;;2278109;61;20568;-68
2021/07/07 08:52:04;0.00;0.00;0.62;0.00;0.00;0.62;2.30;1.60;;;26.50;39.80;;;;;;2278015;61;20548;-67
2021/07/07 08:54:32;0.00;0.00;0.62;0.00;0.00;0.62;2.50;1.70;;;26.60;39.80;;;;;;2278440;61;20347;-70
2021/07/07 08:57:07;0.00;0.00;0.62;0.00;0.00;0.62;2.63;2.10;;;26.60;39.70;;;;;;2277617;61;20384;-69
2021/07/07 08:59:34;0.00;0.00;0.62;0.00;0.00;0.62;3.07;2.40;;;26.60;39.70;;;;;;2278338;61;20351;-70
2021/07/07 09:02:07;0.00;0.00;0.62;0.00;0.00;0.62;2.60;2.03;;;26.70;39.70;;;;;;2278131;61;20433;-70
2021/07/07 09:04:35;0.00;0.00;0.62;0.00;0.00;0.62;5.03;2.57;;;26.70;39.70;;;;;;2278024;61;20431;-71
2021/07/07 09:07:06;0.00;0.00;0.62;0.00;0.00;0.62;2.80;2.00;;;26.70;39.70;;;;;;2278107;60;20351;-71
2021/07/07 09:09:41;0.00;0.00;0.62;0.00;0.00;0.62;4.70;2.70;;;26.80;39.70;;;;;;2278249;61;20355;-68
2021/07/07 09:12:17;0.00;0.00;0.62;0.00;0.00;0.62;2.43;2.13;;;26.80;39.70;;;;;;2277846;61;20347;-73
2021/07/07 09:14:45;0.00;0.00;0.62;0.00;0.00;0.62;3.17;2.13;;;26.80;39.70;;;;;;2278396;61;20451;-74
2021/07/07 09:17:16;0.00;0.00;0.62;0.00;0.00;0.62;3.03;2.13;;;26.90;39.70;;;;;;2278334;61;20398;-68
2021/07/07 09:19:43;0.00;0.00;0.62;0.00;0.00;0.62;2.27;2.00;;;26.90;39.60;;;;;;2277547;61;20363;-66
2021/07/07 09:22:12;0.00;0.00;0.62;0.00;0.00;0.62;2.67;2.10;;;27.00;39.70;;;;;;2277966;61;20356;-69
2021/07/07 09:24:42;0.00;0.00;0.62;0.00;0.00;0.62;3.50;2.50;;;27.00;39.60;;;;;;2277858;61;20409;-64
2021/07/07 09:27:12;0.00;0.00;0.62;0.00;0.00;0.62;2.10;1.70;;;27.00;39.50;;;;;;2277503;61;20348;-66
2021/07/07 09:29:42;0.00;0.00;0.62;0.00;0.00;0.62;3.77;2.20;;;27.00;39.50;;;;;;2278013;61;20396;-70
2021/07/07 09:32:19;0.00;0.00;0.62;0.00;0.00;0.62;10.20;2.60;;;27.10;39.50;;;;;;2278153;61;20695;-65
2021/07/07 09:34:50;0.00;0.00;0.62;0.00;0.00;0.62;2.73;2.40;;;27.10;39.50;;;;;;2278048;61;20366;-69
2021/07/07 09:37:57;0.00;0.00;0.62;0.00;0.00;0.62;3.00;2.20;;;27.20;39.50;;;;;;2278099;61;20366;-70
2021/07/07 09:40:24;0.00;0.00;0.62;0.00;0.00;0.62;4.90;2.47;;;27.20;39.50;;;;;;2278119;61;20379;-72
2021/07/07 09:42:51;0.00;0.00;0.62;0.00;0.00;0.62;3.37;2.13;;;27.20;39.40;;;;;;2277663;61;20420;-69